sensor_id;sensor_type;location;lat;lon;timestamp;temperature;humidity
48488;DHT22;34289;48.572;13.378;2022-10-17T00:01:54;10.60;99.90
48488;DHT22;34289;48.572;13.378;2022-10-17T00:04:20;11.30;99.90
48488;DHT22;34289;48.572;13.378;2022-10-17T00:06:46;10.60;99.90
48488;DHT22;34289;48.572;13.378;2022-10-17T00:09:11;11.20;99.90
48488;DHT22;34289;48.572;13.378;2022-10-17T00:11:37;10.60;99.90
48488;DHT22;34289;48.572;13.378;2022-10-17T00:14:03;10.60;99.90
48488;DHT22;34289;48.572;13.378;2022-10-17T00:16:34;10.60;99.90
48488;DHT22;34289;48.572;13.378;2022-10-17T00:19:03;10.80;99.90
48488;DHT22;34289;48.572;13.378;2022-10-17T00:21:29;10.70;99.90
48488;DHT22;34289;48.572;13.378;2022-10-17T00:23:55;10.90;99.90
48488;DHT22;34289;48.572;13.378;2022-10-17T00:26:21;10.60;99.90
48488;DHT22;34289;48.572;13.378;2022-10-17T00:28:51;10.80;99.90
48488;DHT22;34289;48.572;13.378;2022-10-17T00:31:18;10.90;99.90
48488;DHT22;34289;48.572;13.378;2022-10-17T00:33:44;10.50;99.90
48488;DHT22;34289;48.572;13.378;2022-10-17T00:36:13;11.20;99.90
48488;DHT22;34289;48.572;13.378;2022-10-17T00:38:40;10.60;99.90
48488;DHT22;34289;48.572;13.378;2022-10-17T00:41:06;11.80;99.90
48488;DHT22;34289;48.572;13.378;2022-10-17T00:46:37;10.70;99.90
48488;DHT22;34289;48.572;13.378;2022-10-17T00:49:09;10.80;99.90
48488;DHT22;34289;48.572;13.378;2022-10-17T00:51:44;10.80;99.90
48488;DHT22;34289;48.572;13.378;2022-10-17T00:54:13;10.70;99.90
48488;DHT22;34289;48.572;13.378;2022-10-17T00:56:40;10.70;99.90
48488;DHT22;34289;48.572;13.378;2022-10-17T00:59:08;10.70;99.90
48488;DHT22;34289;48.572;13.378;2022-10-17T01:01:35;10.70;99.90
48488;DHT22;34289;48.572;13.378;2022-10-17T01:04:01;10.70;99.90
48488;DHT22;34289;48.572;13.378;2022-10-17T01:06:26;10.70;99.90
48488;DHT22;34289;48.572;13.378;2022-10-17T01:08:52;10.60;99.90
48488;DHT22;34289;48.572;13.378;2022-10-17T01:11:31;10.80;99.90
48488;DHT22;34289;48.572;13.378;2022-10-17T01:14:02;10.70;99.90
48488;DHT22;34289;48.572;13.378;2022-10-17T01:16:45;10.70;99.90
48488;DHT22;34289;48.572;13.378;2022-10-17T01:22:29;10.70;99.90
48488;DHT22;34289;48.572;13.378;2022-10-17T01:28:09;10.70;99.90
48488;DHT22;34289;48.572;13.378;2022-10-17T01:31:08;10.80;99.90
48488;DHT22;34289;48.572;13.378;2022-10-17T01:36:46;10.70;99.90
48488;DHT22;34289;48.572;13.378;2022-10-17T01:39:41;10.60;99.90
48488;DHT22;34289;48.572;13.378;2022-10-17T01:42:26;10.60;99.90
48488;DHT22;34289;48.572;13.378;2022-10-17T01:45:05;10.60;99.90
48488;DHT22;34289;48.572;13.378;2022-10-17T01:47:34;10.60;99.90
48488;DHT22;34289;48.572;13.378;2022-10-17T01:50:06;10.70;99.90
48488;DHT22;34289;48.572;13.378;2022-10-17T01:52:45;10.50;99.90
48488;DHT22;34289;48.572;13.378;2022-10-17T01:55:18;10.40;99.90
48488;DHT22;34289;48.572;13.378;2022-10-17T01:57:49;10.30;99.90
48488;DHT22;34289;48.572;13.378;2022-10-17T02:00:20;10.20;99.90
48488;DHT22;34289;48.572;13.378;2022-10-17T02:02:48;10.20;99.90
48488;DHT22;34289;48.572;13.378;2022-10-17T02:05:16;10.20;99.90
48488;DHT22;34289;48.572;13.378;2022-10-17T02:07:43;10.10;99.90
48488;DHT22;34289;48.572;13.378;2022-10-17T02:10:15;10.10;99.90
48488;DHT22;34289;48.572;13.378;2022-10-17T02:13:09;10.00;99.90
48488;DHT22;34289;48.572;13.378;2022-10-17T02:18:39;10.00;99.90
48488;DHT22;34289;48.572;13.378;2022-10-17T02:21:06;10.10;99.90
48488;DHT22;34289;48.572;13.378;2022-10-17T02:26:55;10.00;99.90
48488;DHT22;34289;48.572;13.378;2022-10-17T02:29:42;10.30;99.90
48488;DHT22;34289;48.572;13.378;2022-10-17T02:32:13;10.00;99.90
48488;DHT22;34289;48.572;13.378;2022-10-17T02:34:50;10.00;99.90
48488;DHT22;34289;48.572;13.378;2022-10-17T02:37:22;10.40;99.90
48488;DHT22;34289;48.572;13.378;2022-10-17T02:39:49;9.90;99.90
48488;DHT22;34289;48.572;13.378;2022-10-17T02:42:16;10.00;99.90
48488;DHT22;34289;48.572;13.378;2022-10-17T02:44:43;9.80;99.90
48488;DHT22;34289;48.572;13.378;2022-10-17T02:49:49;9.70;99.90
48488;DHT22;34289;48.572;13.378;2022-10-17T02:55:24;9.70;99.90
48488;DHT22;34289;48.572;13.378;2022-10-17T02:58:01;9.70;99.90
48488;DHT22;34289;48.572;13.378;2022-10-17T03:00:29;9.70;99.90
48488;DHT22;34289;48.572;13.378;2022-10-17T03:02:55;9.80;99.90
48488;DHT22;34289;48.572;13.378;2022-10-17T03:05:26;10.80;99.90
48488;DHT22;34289;48.572;13.378;2022-10-17T03:07:53;10.80;99.90
48488;DHT22;34289;48.572;13.378;2022-10-17T03:10:20;9.70;99.90
48488;DHT22;34289;48.572;13.378;2022-10-17T03:12:45;9.80;99.90
48488;DHT22;34289;48.572;13.378;2022-10-17T03:15:11;9.60;99.90
48488;DHT22;34289;48.572;13.378;2022-10-17T03:17:38;9.60;99.90
48488;DHT22;34289;48.572;13.378;2022-10-17T03:20:04;9.60;99.90
48488;DHT22;34289;48.572;13.378;2022-10-17T03:22:30;9.60;99.90
48488;DHT22;34289;48.572;13.378;2022-10-17T03:24:56;10.20;99.90
48488;DHT22;34289;48.572;13.378;2022-10-17T03:27:21;10.30;99.90
48488;DHT22;34289;48.572;13.378;2022-10-17T03:29:48;9.60;99.90
48488;DHT22;34289;48.572;13.378;2022-10-17T03:32:13;9.90;99.90
48488;DHT22;34289;48.572;13.378;2022-10-17T03:34:39;9.50;99.90
48488;DHT22;34289;48.572;13.378;2022-10-17T03:37:05;9.60;99.90
48488;DHT22;34289;48.572;13.378;2022-10-17T03:39:30;9.50;99.90
48488;DHT22;34289;48.572;13.378;2022-10-17T03:41:56;9.60;99.90
48488;DHT22;34289;48.572;13.378;2022-10-17T03:44:22;9.50;99.90
48488;DHT22;34289;48.572;13.378;2022-10-17T03:46:47;9.50;99.90
48488;DHT22;34289;48.572;13.378;2022-10-17T03:49:13;9.50;99.90
48488;DHT22;34289;48.572;13.378;2022-10-17T03:51:38;9.40;99.90
48488;DHT22;34289;48.572;13.378;2022-10-17T03:54:07;9.80;99.90
48488;DHT22;34289;48.572;13.378;2022-10-17T03:56:32;10.00;99.90
48488;DHT22;34289;48.572;13.378;2022-10-17T03:58:58;9.40;99.90
48488;DHT22;34289;48.572;13.378;2022-10-17T04:01:23;10.20;99.90
48488;DHT22;34289;48.572;13.378;2022-10-17T04:03:51;9.50;99.90
48488;DHT22;34289;48.572;13.378;2022-10-17T04:06:17;9.50;99.90
48488;DHT22;34289;48.572;13.378;2022-10-17T04:08:43;10.40;99.90
48488;DHT22;34289;48.572;13.378;2022-10-17T04:11:15;10.40;99.90
48488;DHT22;34289;48.572;13.378;2022-10-17T04:13:41;9.90;99.90
48488;DHT22;34289;48.572;13.378;2022-10-17T04:16:09;9.50;99.90
48488;DHT22;34289;48.572;13.378;2022-10-17T04:18:36;10.40;99.90
48488;DHT22;34289;48.572;13.378;2022-10-17T04:21:03;10.00;99.90
48488;DHT22;34289;48.572;13.378;2022-10-17T04:23:29;9.50;99.90
48488;DHT22;34289;48.572;13.378;2022-10-17T04:25:59;9.80;99.90
48488;DHT22;34289;48.572;13.378;2022-10-17T04:28:26;10.00;99.90
48488;DHT22;34289;48.572;13.378;2022-10-17T04:31:00;10.70;99.90
48488;DHT22;34289;48.572;13.378;2022-10-17T04:33:26;9.70;99.90
48488;DHT22;34289;48.572;13.378;2022-10-17T04:36:04;9.70;99.90
48488;DHT22;34289;48.572;13.378;2022-10-17T04:38:30;9.70;99.90
48488;DHT22;34289;48.572;13.378;2022-10-17T04:40:57;9.70;99.90
48488;DHT22;34289;48.572;13.378;2022-10-17T04:43:22;10.70;99.90
48488;DHT22;34289;48.572;13.378;2022-10-17T04:45:48;10.30;99.90
48488;DHT22;34289;48.572;13.378;2022-10-17T04:48:14;9.60;99.90
48488;DHT22;34289;48.572;13.378;2022-10-17T04:50:39;9.90;99.90
48488;DHT22;34289;48.572;13.378;2022-10-17T04:53:05;9.70;99.90
48488;DHT22;34289;48.572;13.378;2022-10-17T04:55:30;10.70;99.90
48488;DHT22;34289;48.572;13.378;2022-10-17T04:58:00;10.00;99.90
48488;DHT22;34289;48.572;13.378;2022-10-17T05:00:26;9.90;99.90
48488;DHT22;34289;48.572;13.378;2022-10-17T05:02:52;9.70;99.90
48488;DHT22;34289;48.572;13.378;2022-10-17T05:05:18;9.70;99.90
48488;DHT22;34289;48.572;13.378;2022-10-17T05:07:44;9.70;99.90
48488;DHT22;34289;48.572;13.378;2022-10-17T05:10:10;9.60;99.90
48488;DHT22;34289;48.572;13.378;2022-10-17T05:12:35;9.60;99.90
48488;DHT22;34289;48.572;13.378;2022-10-17T05:15:01;9.70;99.90
48488;DHT22;34289;48.572;13.378;2022-10-17T05:17:27;10.40;99.90
48488;DHT22;34289;48.572;13.378;2022-10-17T05:19:53;10.40;99.90
48488;DHT22;34289;48.572;13.378;2022-10-17T05:22:18;10.10;99.90
48488;DHT22;34289;48.572;13.378;2022-10-17T05:24:44;10.60;99.90
48488;DHT22;34289;48.572;13.378;2022-10-17T05:27:10;9.70;99.90
48488;DHT22;34289;48.572;13.378;2022-10-17T05:29:36;9.80;99.90
48488;DHT22;34289;48.572;13.378;2022-10-17T05:32:02;10.10;99.90
48488;DHT22;34289;48.572;13.378;2022-10-17T05:34:28;9.70;99.90
48488;DHT22;34289;48.572;13.378;2022-10-17T05:36:53;10.70;99.90
48488;DHT22;34289;48.572;13.378;2022-10-17T05:39:19;10.50;99.90
48488;DHT22;34289;48.572;13.378;2022-10-17T05:41:45;9.60;99.90
48488;DHT22;34289;48.572;13.378;2022-10-17T05:44:11;10.50;99.90
48488;DHT22;34289;48.572;13.378;2022-10-17T05:46:38;10.10;99.90
48488;DHT22;34289;48.572;13.378;2022-10-17T05:49:03;9.80;99.90
48488;DHT22;34289;48.572;13.378;2022-10-17T05:51:32;10.00;99.90
48488;DHT22;34289;48.572;13.378;2022-10-17T05:53:58;11.30;99.90
48488;DHT22;34289;48.572;13.378;2022-10-17T05:56:23;11.50;99.90
48488;DHT22;34289;48.572;13.378;2022-10-17T05:58:49;10.60;99.90
48488;DHT22;34289;48.572;13.378;2022-10-17T06:01:15;9.90;99.90
48488;DHT22;34289;48.572;13.378;2022-10-17T06:03:40;10.20;99.90
48488;DHT22;34289;48.572;13.378;2022-10-17T06:06:11;12.00;99.90
48488;DHT22;34289;48.572;13.378;2022-10-17T06:08:37;10.10;99.90
48488;DHT22;34289;48.572;13.378;2022-10-17T06:11:03;10.20;99.90
48488;DHT22;34289;48.572;13.378;2022-10-17T06:13:29;10.10;99.90
48488;DHT22;34289;48.572;13.378;2022-10-17T06:15:55;10.10;99.90
48488;DHT22;34289;48.572;13.378;2022-10-17T06:18:21;10.20;99.90
48488;DHT22;34289;48.572;13.378;2022-10-17T06:20:47;10.60;99.90
48488;DHT22;34289;48.572;13.378;2022-10-17T06:23:13;10.80;99.90
48488;DHT22;34289;48.572;13.378;2022-10-17T06:25:39;10.40;99.90
48488;DHT22;34289;48.572;13.378;2022-10-17T06:28:04;10.50;99.90
48488;DHT22;34289;48.572;13.378;2022-10-17T06:30:30;10.50;99.90
48488;DHT22;34289;48.572;13.378;2022-10-17T06:32:56;10.60;99.90
48488;DHT22;34289;48.572;13.378;2022-10-17T06:35:22;10.70;99.90
48488;DHT22;34289;48.572;13.378;2022-10-17T06:37:47;10.80;99.90
48488;DHT22;34289;48.572;13.378;2022-10-17T06:40:13;10.80;99.90
48488;DHT22;34289;48.572;13.378;2022-10-17T06:42:42;10.80;99.90
48488;DHT22;34289;48.572;13.378;2022-10-17T06:45:08;10.80;99.90
48488;DHT22;34289;48.572;13.378;2022-10-17T06:47:34;10.80;99.90
48488;DHT22;34289;48.572;13.378;2022-10-17T06:50:00;10.90;99.90
48488;DHT22;34289;48.572;13.378;2022-10-17T06:52:25;11.20;99.90
48488;DHT22;34289;48.572;13.378;2022-10-17T06:54:51;11.00;99.90
48488;DHT22;34289;48.572;13.378;2022-10-17T06:57:17;11.10;99.90
48488;DHT22;34289;48.572;13.378;2022-10-17T06:59:43;11.60;99.90
48488;DHT22;34289;48.572;13.378;2022-10-17T07:02:09;11.30;99.90
48488;DHT22;34289;48.572;13.378;2022-10-17T07:04:35;11.70;99.90
48488;DHT22;34289;48.572;13.378;2022-10-17T07:07:01;11.30;99.90
48488;DHT22;34289;48.572;13.378;2022-10-17T07:09:30;11.40;99.90
48488;DHT22;34289;48.572;13.378;2022-10-17T07:11:55;11.70;99.90
48488;DHT22;34289;48.572;13.378;2022-10-17T07:14:21;11.40;99.90
48488;DHT22;34289;48.572;13.378;2022-10-17T07:16:47;11.50;99.90
48488;DHT22;34289;48.572;13.378;2022-10-17T07:19:13;12.20;99.90
48488;DHT22;34289;48.572;13.378;2022-10-17T07:21:38;11.60;99.90
48488;DHT22;34289;48.572;13.378;2022-10-17T07:24:04;11.70;99.90
48488;DHT22;34289;48.572;13.378;2022-10-17T07:26:31;11.80;99.90
48488;DHT22;34289;48.572;13.378;2022-10-17T07:28:57;13.30;99.90
48488;DHT22;34289;48.572;13.378;2022-10-17T07:31:23;11.90;99.90
48488;DHT22;34289;48.572;13.378;2022-10-17T07:33:49;11.90;99.90
48488;DHT22;34289;48.572;13.378;2022-10-17T07:36:15;12.00;99.90
48488;DHT22;34289;48.572;13.378;2022-10-17T07:38:41;12.00;99.90
48488;DHT22;34289;48.572;13.378;2022-10-17T07:41:08;12.00;99.90
48488;DHT22;34289;48.572;13.378;2022-10-17T07:43:35;12.00;99.90
48488;DHT22;34289;48.572;13.378;2022-10-17T07:46:06;12.10;99.90
48488;DHT22;34289;48.572;13.378;2022-10-17T07:48:32;12.20;99.90
48488;DHT22;34289;48.572;13.378;2022-10-17T07:51:01;12.20;99.90
48488;DHT22;34289;48.572;13.378;2022-10-17T07:53:27;12.20;99.90
48488;DHT22;34289;48.572;13.378;2022-10-17T07:55:52;12.30;99.90
48488;DHT22;34289;48.572;13.378;2022-10-17T07:58:18;12.50;99.90
48488;DHT22;34289;48.572;13.378;2022-10-17T08:00:44;12.50;99.90
48488;DHT22;34289;48.572;13.378;2022-10-17T08:03:12;12.90;99.90
48488;DHT22;34289;48.572;13.378;2022-10-17T08:05:38;12.70;99.90
48488;DHT22;34289;48.572;13.378;2022-10-17T08:08:04;12.80;99.90
48488;DHT22;34289;48.572;13.378;2022-10-17T08:10:29;12.90;99.90
48488;DHT22;34289;48.572;13.378;2022-10-17T08:12:56;13.00;99.90
48488;DHT22;34289;48.572;13.378;2022-10-17T08:15:24;13.10;99.90
48488;DHT22;34289;48.572;13.378;2022-10-17T08:17:50;13.10;99.90
48488;DHT22;34289;48.572;13.378;2022-10-17T08:20:16;13.30;99.90
48488;DHT22;34289;48.572;13.378;2022-10-17T08:22:51;13.40;99.90
48488;DHT22;34289;48.572;13.378;2022-10-17T08:25:16;13.60;99.90
48488;DHT22;34289;48.572;13.378;2022-10-17T08:27:42;13.60;99.90
48488;DHT22;34289;48.572;13.378;2022-10-17T08:30:08;13.60;99.90
48488;DHT22;34289;48.572;13.378;2022-10-17T08:32:34;13.70;99.90
48488;DHT22;34289;48.572;13.378;2022-10-17T08:34:59;13.70;99.90
48488;DHT22;34289;48.572;13.378;2022-10-17T08:37:25;13.80;99.90
48488;DHT22;34289;48.572;13.378;2022-10-17T08:39:51;13.90;99.90
48488;DHT22;34289;48.572;13.378;2022-10-17T08:47:44;14.10;99.90
48488;DHT22;34289;48.572;13.378;2022-10-17T08:50:24;14.10;99.90
48488;DHT22;34289;48.572;13.378;2022-10-17T08:52:51;14.20;99.90
48488;DHT22;34289;48.572;13.378;2022-10-17T08:55:41;14.10;99.90
48488;DHT22;34289;48.572;13.378;2022-10-17T08:58:30;14.10;99.90
48488;DHT22;34289;48.572;13.378;2022-10-17T09:06:27;14.40;99.90
48488;DHT22;34289;48.572;13.378;2022-10-17T09:09:14;14.40;99.90
48488;DHT22;34289;48.572;13.378;2022-10-17T09:23:08;14.80;99.90
48488;DHT22;34289;48.572;13.378;2022-10-17T09:25:42;14.90;99.90
48488;DHT22;34289;48.572;13.378;2022-10-17T09:30:39;15.20;99.90
48488;DHT22;34289;48.572;13.378;2022-10-17T09:33:16;15.30;99.90
48488;DHT22;34289;48.572;13.378;2022-10-17T09:35:42;15.50;99.90
48488;DHT22;34289;48.572;13.378;2022-10-17T09:38:20;15.60;99.90
48488;DHT22;34289;48.572;13.378;2022-10-17T09:40:58;15.70;99.90
48488;DHT22;34289;48.572;13.378;2022-10-17T09:43:25;15.70;99.90
48488;DHT22;34289;48.572;13.378;2022-10-17T09:46:33;15.80;99.90
48488;DHT22;34289;48.572;13.378;2022-10-17T09:49:11;16.10;99.90
48488;DHT22;34289;48.572;13.378;2022-10-17T09:51:38;16.10;99.90
48488;DHT22;34289;48.572;13.378;2022-10-17T09:54:32;16.10;99.90
48488;DHT22;34289;48.572;13.378;2022-10-17T09:57:07;16.20;99.90
48488;DHT22;34289;48.572;13.378;2022-10-17T09:59:38;16.40;99.90
48488;DHT22;34289;48.572;13.378;2022-10-17T10:04:56;16.70;99.90
48488;DHT22;34289;48.572;13.378;2022-10-17T10:07:24;16.90;99.90
48488;DHT22;34289;48.572;13.378;2022-10-17T10:09:50;16.90;99.90
48488;DHT22;34289;48.572;13.378;2022-10-17T10:12:23;16.90;99.90
48488;DHT22;34289;48.572;13.378;2022-10-17T10:14:50;16.80;99.90
48488;DHT22;34289;48.572;13.378;2022-10-17T10:17:37;16.80;99.90
48488;DHT22;34289;48.572;13.378;2022-10-17T10:23:10;17.20;99.90
48488;DHT22;34289;48.572;13.378;2022-10-17T10:25:37;17.40;99.90
48488;DHT22;34289;48.572;13.378;2022-10-17T10:28:09;17.40;99.90
48488;DHT22;34289;48.572;13.378;2022-10-17T10:30:36;17.50;99.90
48488;DHT22;34289;48.572;13.378;2022-10-17T10:33:02;17.50;99.90
48488;DHT22;34289;48.572;13.378;2022-10-17T10:35:33;17.60;99.90
48488;DHT22;34289;48.572;13.378;2022-10-17T10:38:01;17.90;99.90
48488;DHT22;34289;48.572;13.378;2022-10-17T10:40:34;18.00;99.90
48488;DHT22;34289;48.572;13.378;2022-10-17T10:43:05;18.10;99.90
48488;DHT22;34289;48.572;13.378;2022-10-17T11:01:51;18.80;99.90
48488;DHT22;34289;48.572;13.378;2022-10-17T11:04:30;19.00;99.90
48488;DHT22;34289;48.572;13.378;2022-10-17T11:12:16;19.20;99.90
48488;DHT22;34289;48.572;13.378;2022-10-17T11:14:48;19.20;99.90
48488;DHT22;34289;48.572;13.378;2022-10-17T11:17:27;19.30;99.90
48488;DHT22;34289;48.572;13.378;2022-10-17T11:22:43;19.80;99.90
48488;DHT22;34289;48.572;13.378;2022-10-17T11:27:36;19.90;99.90
48488;DHT22;34289;48.572;13.378;2022-10-17T11:30:03;20.20;99.90
48488;DHT22;34289;48.572;13.378;2022-10-17T11:32:36;20.00;99.90
48488;DHT22;34289;48.572;13.378;2022-10-17T11:35:14;20.10;99.90
48488;DHT22;34289;48.572;13.378;2022-10-17T11:37:46;20.10;99.90
48488;DHT22;34289;48.572;13.378;2022-10-17T11:40:38;20.10;99.90
48488;DHT22;34289;48.572;13.378;2022-10-17T11:45:55;20.30;99.90
48488;DHT22;34289;48.572;13.378;2022-10-17T11:48:41;20.60;99.90
48488;DHT22;34289;48.572;13.378;2022-10-17T11:51:12;20.60;99.90
48488;DHT22;34289;48.572;13.378;2022-10-17T11:54:05;20.70;99.90
48488;DHT22;34289;48.572;13.378;2022-10-17T11:56:43;20.80;99.90
48488;DHT22;34289;48.572;13.378;2022-10-17T12:02:03;20.90;99.90
48488;DHT22;34289;48.572;13.378;2022-10-17T12:04:36;20.80;99.90
48488;DHT22;34289;48.572;13.378;2022-10-17T12:07:37;20.80;99.90
48488;DHT22;34289;48.572;13.378;2022-10-17T12:12:44;21.20;99.90
48488;DHT22;34289;48.572;13.378;2022-10-17T12:17:53;21.40;99.90
48488;DHT22;34289;48.572;13.378;2022-10-17T12:23:03;21.60;99.90
48488;DHT22;34289;48.572;13.378;2022-10-17T12:25:34;21.60;99.90
48488;DHT22;34289;48.572;13.378;2022-10-17T12:28:10;21.80;99.90
48488;DHT22;34289;48.572;13.378;2022-10-17T12:33:50;22.10;99.90
48488;DHT22;34289;48.572;13.378;2022-10-17T12:38:45;22.00;99.90
48488;DHT22;34289;48.572;13.378;2022-10-17T12:41:11;22.20;99.90
48488;DHT22;34289;48.572;13.378;2022-10-17T12:43:49;22.20;99.90
48488;DHT22;34289;48.572;13.378;2022-10-17T12:46:50;22.00;99.90
48488;DHT22;34289;48.572;13.378;2022-10-17T12:49:42;22.20;99.90
48488;DHT22;34289;48.572;13.378;2022-10-17T12:57:55;22.50;99.90
48488;DHT22;34289;48.572;13.378;2022-10-17T13:00:50;23.00;99.90
48488;DHT22;34289;48.572;13.378;2022-10-17T13:03:21;23.00;99.90
48488;DHT22;34289;48.572;13.378;2022-10-17T13:05:54;23.20;99.90
48488;DHT22;34289;48.572;13.378;2022-10-17T13:08:24;23.00;99.90
48488;DHT22;34289;48.572;13.378;2022-10-17T13:10:53;23.00;99.90
48488;DHT22;34289;48.572;13.378;2022-10-17T13:13:42;23.10;99.90
48488;DHT22;34289;48.572;13.378;2022-10-17T13:16:27;23.20;99.90
48488;DHT22;34289;48.572;13.378;2022-10-17T13:18:53;23.20;99.90
48488;DHT22;34289;48.572;13.378;2022-10-17T13:21:19;23.60;99.90
48488;DHT22;34289;48.572;13.378;2022-10-17T13:23:45;23.90;99.90
48488;DHT22;34289;48.572;13.378;2022-10-17T13:28:45;24.40;99.90
48488;DHT22;34289;48.572;13.378;2022-10-17T13:31:35;24.60;99.90
48488;DHT22;34289;48.572;13.378;2022-10-17T13:34:05;24.80;99.90
48488;DHT22;34289;48.572;13.378;2022-10-17T13:36:33;25.00;99.90
48488;DHT22;34289;48.572;13.378;2022-10-17T13:39:05;25.50;99.90
48488;DHT22;34289;48.572;13.378;2022-10-17T13:41:32;25.40;99.90
48488;DHT22;34289;48.572;13.378;2022-10-17T13:44:00;25.90;99.90
48488;DHT22;34289;48.572;13.378;2022-10-17T13:46:28;26.30;99.90
48488;DHT22;34289;48.572;13.378;2022-10-17T13:48:55;26.70;99.90
48488;DHT22;34289;48.572;13.378;2022-10-17T13:51:23;26.90;99.90
48488;DHT22;34289;48.572;13.378;2022-10-17T13:53:49;27.30;99.90
48488;DHT22;34289;48.572;13.378;2022-10-17T13:56:23;28.80;99.90
48488;DHT22;34289;48.572;13.378;2022-10-17T14:01:16;31.70;98.10
48488;DHT22;34289;48.572;13.378;2022-10-17T14:03:44;34.30;96.70
48488;DHT22;34289;48.572;13.378;2022-10-17T14:06:16;33.50;94.30
48488;DHT22;34289;48.572;13.378;2022-10-17T14:08:56;33.20;93.80
48488;DHT22;34289;48.572;13.378;2022-10-17T14:11:41;33.00;93.20
48488;DHT22;34289;48.572;13.378;2022-10-17T14:14:20;33.20;92.90
48488;DHT22;34289;48.572;13.378;2022-10-17T14:16:47;33.20;92.20
48488;DHT22;34289;48.572;13.378;2022-10-17T14:19:29;33.00;91.90
48488;DHT22;34289;48.572;13.378;2022-10-17T14:22:14;33.50;91.70
48488;DHT22;34289;48.572;13.378;2022-10-17T14:29:53;33.90;90.50
48488;DHT22;34289;48.572;13.378;2022-10-17T14:32:20;33.50;90.90
48488;DHT22;34289;48.572;13.378;2022-10-17T14:34:51;33.80;90.90
48488;DHT22;34289;48.572;13.378;2022-10-17T14:37:41;34.20;90.40
48488;DHT22;34289;48.572;13.378;2022-10-17T14:40:19;33.60;89.40
48488;DHT22;34289;48.572;13.378;2022-10-17T14:42:46;31.10;91.20
48488;DHT22;34289;48.572;13.378;2022-10-17T14:45:22;28.40;94.00
48488;DHT22;34289;48.572;13.378;2022-10-17T14:47:53;26.80;95.90
48488;DHT22;34289;48.572;13.378;2022-10-17T14:50:26;25.40;98.50
48488;DHT22;34289;48.572;13.378;2022-10-17T14:53:18;24.60;99.90
48488;DHT22;34289;48.572;13.378;2022-10-17T14:55:57;24.10;99.90
48488;DHT22;34289;48.572;13.378;2022-10-17T14:58:31;23.60;99.90
48488;DHT22;34289;48.572;13.378;2022-10-17T15:00:58;23.30;99.90
48488;DHT22;34289;48.572;13.378;2022-10-17T15:03:24;22.90;99.90
48488;DHT22;34289;48.572;13.378;2022-10-17T15:05:51;22.60;99.90
48488;DHT22;34289;48.572;13.378;2022-10-17T15:08:19;22.30;99.90
48488;DHT22;34289;48.572;13.378;2022-10-17T15:10:46;22.00;99.90
48488;DHT22;34289;48.572;13.378;2022-10-17T15:13:13;21.80;99.90
48488;DHT22;34289;48.572;13.378;2022-10-17T15:15:39;21.50;99.90
48488;DHT22;34289;48.572;13.378;2022-10-17T15:18:05;21.20;99.90
48488;DHT22;34289;48.572;13.378;2022-10-17T15:20:33;21.00;99.90
48488;DHT22;34289;48.572;13.378;2022-10-17T15:23:00;20.80;99.90
48488;DHT22;34289;48.572;13.378;2022-10-17T15:25:27;20.70;99.90
48488;DHT22;34289;48.572;13.378;2022-10-17T15:27:53;20.50;99.90
48488;DHT22;34289;48.572;13.378;2022-10-17T15:30:31;20.30;99.90
48488;DHT22;34289;48.572;13.378;2022-10-17T15:32:58;20.10;99.90
48488;DHT22;34289;48.572;13.378;2022-10-17T15:35:24;19.90;99.90
48488;DHT22;34289;48.572;13.378;2022-10-17T15:37:50;19.80;99.90
48488;DHT22;34289;48.572;13.378;2022-10-17T15:40:24;19.60;99.90
48488;DHT22;34289;48.572;13.378;2022-10-17T15:42:52;19.40;99.90
48488;DHT22;34289;48.572;13.378;2022-10-17T15:45:19;19.20;99.90
48488;DHT22;34289;48.572;13.378;2022-10-17T15:47:52;19.10;99.90
48488;DHT22;34289;48.572;13.378;2022-10-17T15:50:18;19.00;99.90
48488;DHT22;34289;48.572;13.378;2022-10-17T15:52:46;18.90;99.90
48488;DHT22;34289;48.572;13.378;2022-10-17T15:55:11;18.70;99.90
48488;DHT22;34289;48.572;13.378;2022-10-17T15:57:40;18.50;99.90
48488;DHT22;34289;48.572;13.378;2022-10-17T16:00:14;18.30;99.90
48488;DHT22;34289;48.572;13.378;2022-10-17T16:02:41;18.00;99.90
48488;DHT22;34289;48.572;13.378;2022-10-17T16:05:33;17.80;99.90
48488;DHT22;34289;48.572;13.378;2022-10-17T16:07:58;17.50;99.90
48488;DHT22;34289;48.572;13.378;2022-10-17T16:10:24;17.30;99.90
48488;DHT22;34289;48.572;13.378;2022-10-17T16:12:50;17.10;99.90
48488;DHT22;34289;48.572;13.378;2022-10-17T16:15:23;16.90;99.90
48488;DHT22;34289;48.572;13.378;2022-10-17T16:17:50;16.70;99.90
48488;DHT22;34289;48.572;13.378;2022-10-17T16:20:16;16.40;99.90
48488;DHT22;34289;48.572;13.378;2022-10-17T16:22:43;16.20;99.90
48488;DHT22;34289;48.572;13.378;2022-10-17T16:25:22;16.00;99.90
48488;DHT22;34289;48.572;13.378;2022-10-17T16:27:50;15.70;99.90
48488;DHT22;34289;48.572;13.378;2022-10-17T16:30:17;15.60;99.90
48488;DHT22;34289;48.572;13.378;2022-10-17T16:32:43;15.40;99.90
48488;DHT22;34289;48.572;13.378;2022-10-17T16:35:44;15.30;99.90
48488;DHT22;34289;48.572;13.378;2022-10-17T16:38:04;15.20;99.90
48488;DHT22;34289;48.572;13.378;2022-10-17T16:40:30;15.10;99.90
48488;DHT22;34289;48.572;13.378;2022-10-17T16:42:56;15.10;99.90
48488;DHT22;34289;48.572;13.378;2022-10-17T16:45:22;15.00;99.90
48488;DHT22;34289;48.572;13.378;2022-10-17T16:47:48;15.00;99.90
48488;DHT22;34289;48.572;13.378;2022-10-17T16:50:14;14.90;99.90
48488;DHT22;34289;48.572;13.378;2022-10-17T16:52:40;14.90;99.90
48488;DHT22;34289;48.572;13.378;2022-10-17T16:55:07;14.70;99.90
48488;DHT22;34289;48.572;13.378;2022-10-17T16:57:32;14.60;99.90
48488;DHT22;34289;48.572;13.378;2022-10-17T16:59:58;14.50;99.90
48488;DHT22;34289;48.572;13.378;2022-10-17T17:02:24;14.30;99.90
48488;DHT22;34289;48.572;13.378;2022-10-17T17:04:49;14.30;99.90
48488;DHT22;34289;48.572;13.378;2022-10-17T17:07:15;14.20;99.90
48488;DHT22;34289;48.572;13.378;2022-10-17T17:09:43;14.10;99.90
48488;DHT22;34289;48.572;13.378;2022-10-17T17:12:08;14.00;99.90
48488;DHT22;34289;48.572;13.378;2022-10-17T17:14:34;14.00;99.90
48488;DHT22;34289;48.572;13.378;2022-10-17T17:16:59;13.90;99.90
48488;DHT22;34289;48.572;13.378;2022-10-17T17:19:25;13.80;99.90
48488;DHT22;34289;48.572;13.378;2022-10-17T17:21:51;13.70;99.90
48488;DHT22;34289;48.572;13.378;2022-10-17T17:24:18;13.70;99.90
48488;DHT22;34289;48.572;13.378;2022-10-17T17:26:52;13.60;99.90
48488;DHT22;34289;48.572;13.378;2022-10-17T17:29:19;13.50;99.90
48488;DHT22;34289;48.572;13.378;2022-10-17T17:31:45;13.50;99.90